createdAt,value
2018-06-30T00:00:39.061Z,99105.20
2018-06-30T00:03:07.620Z,99113.63
2018-06-30T00:05:36.142Z,99118.78
2018-06-30T00:08:04.780Z,99069.88
2018-06-30T00:10:33.375Z,99120.04
2018-06-30T00:13:02.292Z,99116.86
2018-06-30T00:15:30.829Z,99111.86
2018-06-30T00:17:59.459Z,99112.10
2018-06-30T00:20:28.005Z,99104.10
2018-06-30T00:22:56.605Z,99097.38
2018-06-30T00:25:25.169Z,99104.17
2018-06-30T00:27:55.724Z,99102.94
2018-06-30T00:30:25.328Z,99111.28
2018-06-30T00:32:54.613Z,99115.65
2018-06-30T00:35:23.212Z,99109.63
2018-06-30T00:37:51.808Z,99112.21
2018-06-30T00:40:20.377Z,99117.23
2018-06-30T00:42:48.920Z,99114.25
2018-06-30T00:45:17.437Z,99116.42
2018-06-30T00:47:46.522Z,99112.72
2018-06-30T00:50:15.042Z,99115.59
2018-06-30T00:52:43.580Z,99113.18
2018-06-30T00:55:12.147Z,99111.73
2018-06-30T00:57:40.701Z,99116.29
2018-06-30T01:00:09.372Z,99113.87
2018-06-30T01:02:37.913Z,99118.53
2018-06-30T01:05:06.465Z,99110.70
2018-06-30T01:07:35.060Z,99115.03
2018-06-30T01:10:03.654Z,99120.12
2018-06-30T01:12:32.212Z,99119.80
2018-06-30T01:15:00.725Z,99116.75
2018-06-30T01:17:29.276Z,99119.16
2018-06-30T01:19:58.049Z,99114.55
2018-06-30T01:22:26.614Z,99117.00
2018-06-30T01:24:55.116Z,99118.19
2018-06-30T01:27:23.636Z,99121.81
2018-06-30T01:29:52.188Z,99122.21
2018-06-30T01:32:20.698Z,99121.27
2018-06-30T01:34:49.232Z,99112.88
2018-06-30T01:37:17.761Z,99122.09
2018-06-30T01:39:46.653Z,99117.14
2018-06-30T01:42:15.188Z,99112.36
2018-06-30T01:44:45.892Z,99103.39
2018-06-30T01:47:14.412Z,99115.56
2018-06-30T01:49:42.992Z,99119.03
2018-06-30T01:52:11.508Z,99115.88
2018-06-30T01:54:40.060Z,99122.52
2018-06-30T01:57:08.592Z,99119.97
2018-06-30T01:59:37.531Z,99117.10
2018-06-30T02:02:06.080Z,99106.56
2018-06-30T02:04:34.639Z,99113.67
2018-06-30T02:07:03.164Z,99118.86
2018-06-30T02:09:31.752Z,99113.59
2018-06-30T02:12:00.296Z,99104.83
2018-06-30T02:14:28.879Z,99109.73
2018-06-30T02:16:57.416Z,99112.30
2018-06-30T02:19:25.996Z,99107.67
2018-06-30T02:21:54.658Z,99102.49
2018-06-30T02:24:24.225Z,99113.11
2018-06-30T02:26:53.249Z,99110.18
2018-06-30T02:29:22.156Z,99114.16
2018-06-30T02:31:50.668Z,99112.03
2018-06-30T02:34:19.232Z,99111.23
2018-06-30T02:36:48.520Z,99108.50
2018-06-30T02:39:17.099Z,99114.71
2018-06-30T02:41:45.641Z,99110.23
2018-06-30T02:44:14.316Z,99116.98
2018-06-30T02:46:42.844Z,99111.92
2018-06-30T02:49:11.385Z,99110.23
2018-06-30T02:51:39.905Z,99107.89
2018-06-30T02:54:08.458Z,99108.58
2018-06-30T02:56:36.970Z,99108.50
2018-06-30T02:59:05.517Z,99112.39
2018-06-30T03:01:34.031Z,99112.34
2018-06-30T03:04:02.600Z,99108.50
2018-06-30T03:06:31.108Z,99108.00
2018-06-30T03:08:59.941Z,99103.61
2018-06-30T03:11:28.469Z,99100.81
2018-06-30T03:13:57.026Z,99106.59
2018-06-30T03:16:25.555Z,99100.45
2018-06-30T03:18:54.060Z,99100.73
2018-06-30T03:21:22.608Z,99100.28
2018-06-30T03:23:51.126Z,99103.48
2018-06-30T03:26:19.673Z,99099.95
2018-06-30T03:28:48.665Z,99099.88
2018-06-30T03:31:17.483Z,99100.44
2018-06-30T03:33:45.992Z,99097.88
2018-06-30T03:36:14.544Z,99095.64
2018-06-30T03:38:43.061Z,99091.46
2018-06-30T03:41:11.629Z,99097.94
2018-06-30T03:43:40.141Z,99098.78
2018-06-30T03:46:08.728Z,99095.86
2018-06-30T03:48:37.215Z,99100.72
2018-06-30T03:51:06.027Z,99100.67
2018-06-30T03:53:34.529Z,99100.91
2018-06-30T03:56:03.152Z,99099.27
2018-06-30T03:58:31.668Z,99095.54
2018-06-30T04:01:00.218Z,99103.97
2018-06-30T04:03:28.799Z,99096.25
2018-06-30T04:05:57.340Z,99097.50
2018-06-30T04:08:25.889Z,99098.97
2018-06-30T04:10:54.436Z,99101.60
2018-06-30T04:13:22.949Z,99104.89
2018-06-30T04:15:51.504Z,99102.77
2018-06-30T04:18:20.015Z,99104.38
2018-06-30T04:20:48.951Z,99099.55
2018-06-30T04:23:17.461Z,99102.19
2018-06-30T04:25:46.005Z,99099.11
2018-06-30T04:28:14.557Z,99104.76
2018-06-30T04:30:43.093Z,99105.48
2018-06-30T04:33:11.613Z,99104.52
2018-06-30T04:35:40.196Z,99103.77
2018-06-30T04:38:08.780Z,99107.30
2018-06-30T04:40:37.345Z,99099.69
2018-06-30T04:43:05.928Z,99101.18
2018-06-30T04:45:34.465Z,99092.05
2018-06-30T04:48:03.004Z,99103.91
2018-06-30T04:50:31.585Z,99111.09
2018-06-30T04:53:00.089Z,99102.06
2018-06-30T04:55:28.627Z,99104.45
2018-06-30T04:57:57.149Z,99102.56
2018-06-30T05:00:25.707Z,99105.48
2018-06-30T05:02:54.517Z,99113.30
2018-06-30T05:05:23.053Z,99108.19
2018-06-30T05:07:51.648Z,99110.97
2018-06-30T05:10:20.152Z,99110.62
2018-06-30T05:12:49.134Z,99112.48
2018-06-30T05:15:17.625Z,99110.89
2018-06-30T05:17:46.244Z,99113.12
2018-06-30T05:20:14.748Z,99108.61
2018-06-30T05:22:43.307Z,99111.70
2018-06-30T05:25:11.812Z,99113.39
2018-06-30T05:27:40.349Z,99111.77
2018-06-30T05:30:08.916Z,99108.72
2018-06-30T05:32:37.468Z,99108.78
2018-06-30T05:35:06.004Z,99105.81
2018-06-30T05:37:34.544Z,99107.21
2018-06-30T05:40:03.170Z,99105.27
2018-06-30T05:42:31.710Z,99109.64
2018-06-30T05:45:00.217Z,99108.05
2018-06-30T05:47:28.772Z,99100.27
2018-06-30T05:49:57.289Z,99105.14
2018-06-30T05:52:25.820Z,99101.54
2018-06-30T05:54:54.484Z,99104.91
2018-06-30T05:57:23.037Z,99100.48
2018-06-30T05:59:51.568Z,99106.87
2018-06-30T06:02:20.137Z,99104.39
2018-06-30T06:04:49.424Z,99108.77
2018-06-30T06:07:18.098Z,99105.28
2018-06-30T06:09:46.644Z,99105.16
2018-06-30T06:12:15.523Z,99107.33
2018-06-30T06:14:44.037Z,99103.20
2018-06-30T06:17:12.586Z,99104.39
2018-06-30T06:19:41.100Z,99099.94
2018-06-30T06:22:09.685Z,99103.27
2018-06-30T06:24:38.272Z,99103.42
2018-06-30T06:27:06.827Z,99104.61
2018-06-30T06:29:35.348Z,99101.23
2018-06-30T06:32:03.896Z,99102.24
2018-06-30T06:34:32.433Z,99104.90
2018-06-30T06:37:00.996Z,99103.55
2018-06-30T06:39:29.520Z,99103.23
2018-06-30T06:41:58.157Z,99111.89
2018-06-30T06:44:26.683Z,99104.52
2018-06-30T06:46:55.296Z,99116.02
2018-06-30T06:49:25.831Z,99107.82
2018-06-30T06:51:54.472Z,99106.73
2018-06-30T06:54:23.084Z,99103.34
2018-06-30T06:56:51.720Z,99105.02
2018-06-30T06:59:20.584Z,99097.47
2018-06-30T07:01:49.492Z,99089.27
2018-06-30T07:04:18.066Z,99105.56
2018-06-30T07:06:46.592Z,99103.14
2018-06-30T07:09:15.181Z,99098.03
2018-06-30T07:11:43.717Z,99098.26
2018-06-30T07:14:12.276Z,99095.64
2018-06-30T07:16:40.788Z,99100.11
2018-06-30T07:19:09.390Z,99098.07
2018-06-30T07:21:37.908Z,99097.33
2018-06-30T07:24:13.076Z,99091.66
2018-06-30T07:26:41.596Z,99094.09
2018-06-30T07:29:10.180Z,99089.14
2018-06-30T07:31:38.718Z,99089.57
2018-06-30T07:34:07.277Z,99086.98
2018-06-30T07:36:35.809Z,99091.65
2018-06-30T07:39:06.868Z,99095.58
2018-06-30T07:41:35.389Z,99093.72
2018-06-30T07:44:04.240Z,99097.84
2018-06-30T07:46:32.884Z,99101.19
2018-06-30T07:49:02.208Z,99096.86
2018-06-30T07:51:30.792Z,99093.50
2018-06-30T07:53:59.867Z,99096.23
2018-06-30T07:56:28.296Z,99097.46
2018-06-30T07:58:56.881Z,99101.13
2018-06-30T08:01:25.408Z,99094.43
2018-06-30T08:03:54.138Z,99094.33
2018-06-30T08:06:22.741Z,99093.14
2018-06-30T08:08:52.684Z,99096.98
2018-06-30T08:11:22.020Z,99093.17
2018-06-30T08:13:56.383Z,99097.95
2018-06-30T08:16:31.984Z,99099.84
2018-06-30T08:19:01.879Z,99100.09
2018-06-30T08:21:32.506Z,99100.73
2018-06-30T08:24:05.852Z,99098.06
2018-06-30T08:26:36.328Z,99099.02
2018-06-30T08:29:06.250Z,99099.67
2018-06-30T08:31:39.411Z,99099.40
2018-06-30T08:34:08.021Z,99100.03
2018-06-30T08:36:42.919Z,99096.20
2018-06-30T08:39:17.615Z,99104.50
2018-06-30T08:41:49.757Z,99095.54
2018-06-30T08:44:22.725Z,99095.48
2018-06-30T08:46:57.294Z,99090.62
2018-06-30T08:49:30.821Z,99096.14
2018-06-30T08:52:05.261Z,99096.38
2018-06-30T08:54:34.036Z,99091.24
2018-06-30T08:57:11.164Z,99101.41
2018-06-30T08:59:46.927Z,99094.63
2018-06-30T09:02:19.854Z,99100.82
2018-06-30T09:04:49.791Z,99098.92
2018-06-30T09:07:24.265Z,99102.20
2018-06-30T09:09:56.469Z,99095.64
2018-06-30T09:12:28.005Z,99096.23
2018-06-30T09:14:57.300Z,99095.20
2018-06-30T09:17:31.395Z,99095.92
2018-06-30T09:20:04.528Z,99099.70
2018-06-30T09:22:33.935Z,99096.14
2018-06-30T09:25:05.743Z,99092.68
2018-06-30T09:27:36.357Z,99091.16
2018-06-30T09:30:08.644Z,99089.14
2018-06-30T09:32:38.989Z,99089.66
2018-06-30T09:35:09.192Z,99092.34
2018-06-30T09:37:38.054Z,99085.25
2018-06-30T09:40:08.229Z,99082.86
2018-06-30T09:42:38.412Z,99085.92
2018-06-30T09:45:08.673Z,99085.28
2018-06-30T09:47:41.953Z,99085.72
2018-06-30T09:50:14.207Z,99081.76
2018-06-30T09:52:50.164Z,99084.09
2018-06-30T09:55:21.841Z,99082.63
2018-06-30T09:57:51.021Z,99076.13
2018-06-30T10:00:29.171Z,99082.88
2018-06-30T10:03:00.860Z,99075.89
2018-06-30T10:05:34.268Z,99076.63
2018-06-30T10:08:08.327Z,99082.22
2018-06-30T10:10:40.737Z,99083.27
2018-06-30T10:13:10.756Z,99079.77
2018-06-30T10:15:44.518Z,99075.36
2018-06-30T10:18:13.225Z,99076.84
2018-06-30T10:20:48.318Z,99069.38
2018-06-30T10:23:23.690Z,99064.94
2018-06-30T10:25:56.647Z,99074.00
2018-06-30T10:28:28.587Z,99062.91
2018-06-30T10:31:01.783Z,99062.44
2018-06-30T10:33:38.064Z,99056.09
2018-06-30T10:36:10.407Z,99051.62
2018-06-30T10:38:40.184Z,99055.72
2018-06-30T10:41:12.441Z,99054.24
2018-06-30T10:43:45.164Z,99048.50
2018-06-30T10:46:16.361Z,99048.08
2018-06-30T10:48:46.989Z,99049.05
2018-06-30T10:51:17.899Z,99047.59
2018-06-30T10:53:52.504Z,99045.25
2018-06-30T10:56:25.196Z,99047.59
2018-06-30T10:58:57.665Z,99044.96
2018-06-30T11:01:27.012Z,99048.94
2018-06-30T11:04:01.949Z,99046.42
2018-06-30T11:06:31.456Z,99049.78
2018-06-30T11:09:01.385Z,99038.13
2018-06-30T11:11:33.857Z,99034.02
2018-06-30T11:14:07.710Z,99034.97
2018-06-30T11:16:38.465Z,99038.98
2018-06-30T11:19:14.417Z,99027.95
2018-06-30T11:21:50.062Z,99035.19
2018-06-30T11:24:24.643Z,99034.20
2018-06-30T11:26:59.849Z,99037.06
2018-06-30T11:29:29.337Z,99029.83
2018-06-30T11:31:58.725Z,99032.97
2018-06-30T11:34:28.741Z,99028.11
2018-06-30T11:37:06.485Z,99027.56
2018-06-30T11:39:43.070Z,99020.84
2018-06-30T11:42:19.197Z,99019.97
2018-06-30T11:44:58.245Z,99022.36
2018-06-30T11:47:35.211Z,99018.77
2018-06-30T11:50:14.476Z,99016.45
2018-06-30T11:52:50.418Z,99004.63
2018-06-30T11:55:28.032Z,99012.55
2018-06-30T11:58:02.893Z,98996.36
2018-06-30T12:00:38.828Z,99003.50
2018-06-30T12:03:08.369Z,98996.39
2018-06-30T12:05:43.965Z,98999.73
2018-06-30T12:08:15.581Z,98992.84
2018-06-30T12:10:45.105Z,98997.34
2018-06-30T12:13:20.225Z,98993.58
2018-06-30T12:15:59.039Z,98997.77
2018-06-30T12:18:31.576Z,98995.20
2018-06-30T12:21:00.125Z,98992.22
2018-06-30T12:23:29.888Z,98989.48
2018-06-30T12:25:59.915Z,98984.89
2018-06-30T12:28:28.736Z,98999.66
2018-06-30T12:30:57.420Z,98988.16
2018-06-30T12:33:26.300Z,98987.59
2018-06-30T12:35:54.820Z,98988.70
2018-06-30T12:38:24.876Z,98990.67
2018-06-30T12:40:53.839Z,98987.98
2018-06-30T12:43:22.585Z,98980.55
2018-06-30T12:45:51.100Z,98984.37
2018-06-30T12:48:19.644Z,98984.44
2018-06-30T12:50:48.172Z,98979.48
2018-06-30T12:53:16.722Z,98982.63
2018-06-30T12:55:45.253Z,98983.62
2018-06-30T12:58:13.849Z,98974.98
2018-06-30T13:00:42.779Z,98975.03
2018-06-30T13:03:11.408Z,98978.88
2018-06-30T13:05:40.476Z,98973.11
2018-06-30T13:08:09.125Z,98968.54
2018-06-30T13:10:37.929Z,98971.82
2018-06-30T13:13:06.506Z,98963.73
2018-06-30T13:15:36.430Z,98961.72
2018-06-30T13:18:05.577Z,98968.59
2018-06-30T13:20:34.144Z,98967.37
2018-06-30T13:23:02.872Z,98961.10
2018-06-30T13:25:31.441Z,98961.81
2018-06-30T13:28:00.609Z,98960.56
2018-06-30T13:30:29.136Z,98960.72
2018-06-30T13:32:58.068Z,98952.45
2018-06-30T13:35:26.877Z,98950.97
2018-06-30T13:37:55.529Z,98954.45
2018-06-30T13:40:24.352Z,98948.56
2018-06-30T13:42:54.016Z,98952.56
2018-06-30T13:45:22.752Z,98956.98
2018-06-30T13:47:51.288Z,98953.80
2018-06-30T13:50:20.157Z,98950.16
2018-06-30T13:52:49.917Z,98946.40
2018-06-30T13:55:19.402Z,98951.34
2018-06-30T13:57:47.949Z,98940.96
2018-06-30T14:00:18.949Z,98943.72
2018-06-30T14:02:47.677Z,98943.86
2018-06-30T14:05:17.308Z,98945.82
2018-06-30T14:07:46.013Z,98947.17
2018-06-30T14:10:15.505Z,98946.28
2018-06-30T14:12:45.711Z,98947.70
2018-06-30T14:15:14.727Z,98943.22
2018-06-30T14:17:43.293Z,98940.11
2018-06-30T14:20:11.880Z,98943.09
2018-06-30T14:22:40.420Z,98934.28
2018-06-30T14:25:09.041Z,98934.27
2018-06-30T14:27:37.583Z,98925.91
2018-06-30T14:30:08.763Z,98928.21
2018-06-30T14:32:37.280Z,98924.63
2018-06-30T14:35:05.969Z,98925.83
2018-06-30T14:37:34.552Z,98926.81
2018-06-30T14:40:03.125Z,98925.59
2018-06-30T14:42:31.719Z,98925.64
2018-06-30T14:45:00.272Z,98926.17
2018-06-30T14:47:28.800Z,98919.88
2018-06-30T14:49:57.360Z,98918.50
2018-06-30T14:52:25.898Z,98925.52
2018-06-30T14:54:54.448Z,98922.27
2018-06-30T14:57:22.980Z,98920.03
2018-06-30T14:59:51.521Z,98916.02
2018-06-30T15:02:20.056Z,98924.71
2018-06-30T15:04:48.605Z,98925.77
2018-06-30T15:07:17.132Z,98928.00
2018-06-30T15:09:48.616Z,98929.92
2018-06-30T15:12:17.129Z,98924.42
2018-06-30T15:14:45.704Z,98914.33
2018-06-30T15:17:14.264Z,98912.09
2018-06-30T15:19:42.832Z,98918.11
2018-06-30T15:22:11.360Z,98920.60
2018-06-30T15:24:40.011Z,98918.69
2018-06-30T15:27:08.522Z,98914.73
2018-06-30T15:29:37.339Z,98916.90
2018-06-30T15:32:06.309Z,98912.85
2018-06-30T15:34:34.849Z,98916.02
2018-06-30T15:37:03.505Z,98916.67
2018-06-30T15:39:32.070Z,98918.20
2018-06-30T15:42:00.697Z,98919.06
2018-06-30T15:44:29.229Z,98919.84
2018-06-30T15:46:57.789Z,98912.63
2018-06-30T15:49:26.308Z,98914.85
2018-06-30T15:51:58.714Z,98916.11
2018-06-30T15:54:27.457Z,98917.59
2018-06-30T15:56:56.964Z,98915.77
2018-06-30T15:59:25.525Z,98920.56
2018-06-30T16:01:54.249Z,98915.92
2018-06-30T16:04:23.320Z,98920.66
2018-06-30T16:06:51.861Z,98917.66
2018-06-30T16:09:20.408Z,98910.86
2018-06-30T16:11:48.960Z,98911.81
2018-06-30T16:14:17.479Z,98906.64
2018-06-30T16:16:46.049Z,98900.82
2018-06-30T16:19:14.565Z,98898.92
2018-06-30T16:21:43.697Z,98898.98
2018-06-30T16:24:12.541Z,98893.02
2018-06-30T16:26:43.194Z,98891.36
2018-06-30T16:29:15.261Z,98891.67
2018-06-30T16:31:44.580Z,98895.70
2018-06-30T16:34:13.813Z,98902.05
2018-06-30T16:36:42.371Z,98895.45
2018-06-30T16:39:12.112Z,98902.70
2018-06-30T16:41:40.740Z,98906.58
2018-06-30T16:44:09.311Z,98896.80
2018-06-30T16:46:38.321Z,98897.72
2018-06-30T16:49:07.326Z,98912.83
2018-06-30T16:51:35.908Z,98903.87
2018-06-30T16:54:04.544Z,98907.85
2018-06-30T16:56:33.104Z,98902.53
2018-06-30T16:59:02.485Z,98917.02
2018-06-30T17:01:31.093Z,98911.13
2018-06-30T17:03:59.647Z,98910.48
2018-06-30T17:06:28.293Z,98900.78
2018-06-30T17:08:56.861Z,98909.82
2018-06-30T17:11:25.473Z,98913.80
2018-06-30T17:13:53.977Z,98916.17
2018-06-30T17:16:22.524Z,98905.55
2018-06-30T17:18:51.739Z,98908.55
2018-06-30T17:21:28.602Z,98916.05
2018-06-30T17:23:57.719Z,98917.35
2018-06-30T17:26:29.304Z,98909.86
2018-06-30T17:29:05.666Z,98908.52
2018-06-30T17:31:35.481Z,98870.48
2018-06-30T17:34:04.666Z,98903.50
2018-06-30T17:36:33.267Z,98905.66
2018-06-30T17:39:02.457Z,98909.34
2018-06-30T17:41:31.025Z,98903.80
2018-06-30T17:43:59.555Z,98904.53
2018-06-30T17:46:28.105Z,98902.80
2018-06-30T17:49:03.322Z,98899.55
2018-06-30T17:51:31.892Z,98898.98
2018-06-30T17:54:00.437Z,98897.27
2018-06-30T17:56:28.953Z,98901.66
2018-06-30T17:58:59.511Z,98901.94
2018-06-30T18:01:37.764Z,98901.58
2018-06-30T18:04:07.078Z,98896.45
2018-06-30T18:06:37.361Z,98894.92
2018-06-30T18:09:09.808Z,98892.84
2018-06-30T18:11:38.972Z,98895.80
2018-06-30T18:14:08.848Z,98886.61
2018-06-30T18:16:38.200Z,98895.50
2018-06-30T18:19:07.143Z,98899.09
2018-06-30T18:21:41.514Z,98894.84
2018-06-30T18:24:10.700Z,98904.17
2018-06-30T18:26:39.914Z,98906.76
2018-06-30T18:29:09.092Z,98900.08
2018-06-30T18:31:38.419Z,98897.35
2018-06-30T18:34:07.639Z,98899.99
2018-06-30T18:36:36.745Z,98899.59
2018-06-30T18:39:09.021Z,98900.09
2018-06-30T18:41:38.237Z,98902.99
2018-06-30T18:44:10.623Z,98906.25
2018-06-30T18:46:39.891Z,98906.20
2018-06-30T18:49:08.849Z,98905.88
2018-06-30T18:51:38.316Z,98913.53
2018-06-30T18:54:08.793Z,98916.38
2018-06-30T18:56:38.141Z,98915.88
2018-06-30T18:59:07.774Z,98919.72
2018-06-30T19:01:37.317Z,98913.63
2018-06-30T19:04:07.388Z,98912.89
2018-06-30T19:06:36.800Z,98915.42
2018-06-30T19:09:09.137Z,98914.14
2018-06-30T19:11:38.593Z,98912.41
2018-06-30T19:14:08.756Z,98910.75
2018-06-30T19:16:38.143Z,98914.05
2018-06-30T19:19:08.013Z,98921.57
2018-06-30T19:21:36.885Z,98919.45
2018-06-30T19:24:06.246Z,98921.59
2018-06-30T19:26:35.414Z,98918.58
2018-06-30T19:29:04.529Z,98929.09
2018-06-30T19:31:44.260Z,98927.43
2018-06-30T19:34:13.989Z,98939.93
2018-06-30T19:36:43.245Z,98939.32
2018-06-30T19:39:15.154Z,98944.97
2018-06-30T19:41:49.220Z,98948.55
2018-06-30T19:44:18.277Z,98954.59
2018-06-30T19:46:46.790Z,98960.49
2018-06-30T19:49:17.054Z,98963.06
2018-06-30T19:51:45.918Z,98966.28
2018-06-30T19:54:14.466Z,98970.62
2018-06-30T19:56:42.993Z,98964.50
2018-06-30T19:59:11.541Z,98965.74
2018-06-30T20:01:40.061Z,98969.48
2018-06-30T20:04:08.697Z,98971.06
2018-06-30T20:06:37.217Z,98970.53
2018-06-30T20:09:10.277Z,98977.58
2018-06-30T20:11:38.810Z,98978.45
2018-06-30T20:14:07.709Z,98981.84
2018-06-30T20:16:36.269Z,98985.50
2018-06-30T20:19:04.849Z,98989.88
2018-06-30T20:21:33.403Z,98984.89
2018-06-30T20:24:02.033Z,98983.98
2018-06-30T20:26:30.637Z,98985.33
2018-06-30T20:28:59.438Z,98985.59
2018-06-30T20:31:27.973Z,98986.79
2018-06-30T20:33:57.626Z,98982.28
2018-06-30T20:36:26.645Z,98992.01
2018-06-30T20:38:55.185Z,98991.78
2018-06-30T20:41:24.649Z,99001.47
2018-06-30T20:43:53.669Z,98997.72
2018-06-30T20:46:22.185Z,98999.36
2018-06-30T20:48:52.416Z,99001.47
2018-06-30T20:51:21.044Z,99003.05
2018-06-30T20:53:49.605Z,99008.79
2018-06-30T20:56:20.208Z,99006.06
2018-06-30T20:58:50.324Z,99006.78
2018-06-30T21:01:19.030Z,99005.11
2018-06-30T21:03:47.526Z,99007.30
2018-06-30T21:06:17.279Z,99006.39
2018-06-30T21:08:45.904Z,99008.78
2018-06-30T21:11:14.787Z,99016.63
2018-06-30T21:13:46.556Z,99017.77
2018-06-30T21:16:16.257Z,99015.46
2018-06-30T21:18:46.396Z,99014.61
2018-06-30T21:21:15.078Z,99021.98
2018-06-30T21:23:43.628Z,99022.12
2018-06-30T21:26:12.198Z,99021.86
2018-06-30T21:28:40.728Z,99019.11
2018-06-30T21:31:09.285Z,99021.86
2018-06-30T21:33:37.816Z,99029.02
2018-06-30T21:36:06.397Z,99022.33
2018-06-30T21:38:34.930Z,99029.48
2018-06-30T21:41:03.520Z,99030.19
2018-06-30T21:43:32.030Z,99027.61
2018-06-30T21:46:00.583Z,99030.02
2018-06-30T21:48:29.496Z,99035.89
2018-06-30T21:50:58.048Z,99035.02
2018-06-30T21:53:27.151Z,99046.81
2018-06-30T21:56:01.287Z,99042.52
2018-06-30T21:58:33.644Z,99030.83
2018-06-30T22:01:09.597Z,99038.27
2018-06-30T22:03:39.241Z,99033.66
2018-06-30T22:06:09.214Z,99031.45
2018-06-30T22:08:39.079Z,99025.27
2018-06-30T22:11:08.650Z,99032.73
2018-06-30T22:13:37.434Z,99031.88
2018-06-30T22:16:07.618Z,99034.22
2018-06-30T22:18:39.295Z,99046.26
2018-06-30T22:21:12.123Z,99037.23
2018-06-30T22:23:43.568Z,99039.91
2018-06-30T22:26:14.506Z,99039.97
2018-06-30T22:28:44.247Z,99041.83
2018-06-30T22:31:14.944Z,99042.06
2018-06-30T22:33:45.760Z,99046.14
2018-06-30T22:36:15.624Z,99042.59
2018-06-30T22:38:48.939Z,99043.42
2018-06-30T22:41:18.388Z,99056.45
2018-06-30T22:43:46.965Z,99052.23
2018-06-30T22:46:18.474Z,99055.29
2018-06-30T22:48:47.017Z,99061.84
2018-06-30T22:51:15.620Z,99057.31
2018-06-30T22:53:44.147Z,99065.16
2018-06-30T22:56:13.345Z,99054.33
2018-06-30T22:58:41.868Z,99057.22
2018-06-30T23:01:10.568Z,99063.95
2018-06-30T23:03:41.418Z,99066.97
2018-06-30T23:06:10.117Z,99068.79
2018-06-30T23:08:44.185Z,99064.95
2018-06-30T23:11:12.757Z,99073.14
2018-06-30T23:13:41.277Z,99071.84
2018-06-30T23:16:09.826Z,99074.61
2018-06-30T23:18:38.400Z,99078.34
2018-06-30T23:21:06.956Z,99080.50
2018-06-30T23:23:35.536Z,99079.18
2018-06-30T23:26:04.085Z,99079.64
2018-06-30T23:28:32.628Z,99076.00
2018-06-30T23:31:01.159Z,99075.83
2018-06-30T23:33:29.704Z,99079.52
2018-06-30T23:35:58.240Z,99083.03
2018-06-30T23:38:26.961Z,99079.34
2018-06-30T23:40:55.513Z,99079.88
2018-06-30T23:43:24.133Z,99080.73
2018-06-30T23:45:52.648Z,99083.57
2018-06-30T23:48:21.204Z,99082.91
2018-06-30T23:50:49.713Z,99085.08
2018-06-30T23:53:18.256Z,99093.91
2018-06-30T23:55:46.848Z,99091.94
2018-06-30T23:58:15.388Z,99094.09
